sensor_id;sensor_type;location;lat;lon;timestamp;pressure;altitude;pressure_sealevel;temperature;humidity
69879;BME280;57161;43.136;24.706;2024-02-04T00:01:27;99609.31;;;9.99;61.29
69879;BME280;57161;43.136;24.706;2024-02-04T00:03:52;99588.06;;;9.77;61.17
69879;BME280;57161;43.136;24.706;2024-02-04T00:06:17;99617.47;;;9.97;61.47
69879;BME280;57161;43.136;24.706;2024-02-04T00:08:43;99597.13;;;9.83;61.32
69879;BME280;57161;43.136;24.706;2024-02-04T00:11:08;99596.75;;;9.92;61.05
69879;BME280;57161;43.136;24.706;2024-02-04T00:13:38;99595.06;;;10.03;60.98
69879;BME280;57161;43.136;24.706;2024-02-04T00:16:03;99584.78;;;9.92;61.08
69879;BME280;57161;43.136;24.706;2024-02-04T00:18:29;99575.44;;;9.89;60.85
69879;BME280;57161;43.136;24.706;2024-02-04T00:20:54;99596.88;;;10.00;61.23
69879;BME280;57161;43.136;24.706;2024-02-04T00:23:20;99567.25;;;9.78;61.14
69879;BME280;57161;43.136;24.706;2024-02-04T00:25:45;99578.03;;;9.87;61.09
69879;BME280;57161;43.136;24.706;2024-02-04T00:28:11;99561.47;;;9.76;61.44
69879;BME280;57161;43.136;24.706;2024-02-04T00:30:37;99583.00;;;9.95;61.13
69879;BME280;57161;43.136;24.706;2024-02-04T00:33:04;99580.78;;;10.06;60.77
69879;BME280;57161;43.136;24.706;2024-02-04T00:35:29;99540.63;;;9.77;60.87
69879;BME280;57161;43.136;24.706;2024-02-04T00:37:55;99575.06;;;9.99;60.72
69879;BME280;57161;43.136;24.706;2024-02-04T00:40:21;99570.47;;;10.01;60.68
69879;BME280;57161;43.136;24.706;2024-02-04T00:42:46;99543.56;;;9.85;60.58
69879;BME280;57161;43.136;24.706;2024-02-04T00:45:12;99582.13;;;10.18;60.29
69879;BME280;57161;43.136;24.706;2024-02-04T00:47:37;99577.59;;;10.15;60.50
69879;BME280;57161;43.136;24.706;2024-02-04T00:50:03;99575.03;;;10.17;60.30
69879;BME280;57161;43.136;24.706;2024-02-04T00:52:29;99565.06;;;10.22;60.32
69879;BME280;57161;43.136;24.706;2024-02-04T00:54:54;99563.78;;;10.23;59.96
69879;BME280;57161;43.136;24.706;2024-02-04T00:57:20;99543.72;;;10.06;59.78
69879;BME280;57161;43.136;24.706;2024-02-04T00:59:45;99567.56;;;10.26;60.31
69879;BME280;57161;43.136;24.706;2024-02-04T01:02:10;99556.22;;;10.18;60.09
69879;BME280;57161;43.136;24.706;2024-02-04T01:04:36;99554.66;;;10.22;60.33
69879;BME280;57161;43.136;24.706;2024-02-04T01:07:01;99545.00;;;10.23;60.13
69879;BME280;57161;43.136;24.706;2024-02-04T01:09:28;99547.31;;;10.19;60.21
69879;BME280;57161;43.136;24.706;2024-02-04T01:11:53;99551.81;;;10.09;60.62
69879;BME280;57161;43.136;24.706;2024-02-04T01:14:19;99549.91;;;10.17;60.40
69879;BME280;57161;43.136;24.706;2024-02-04T01:16:44;99541.47;;;10.04;60.47
69879;BME280;57161;43.136;24.706;2024-02-04T01:19:10;99547.31;;;10.19;60.64
69879;BME280;57161;43.136;24.706;2024-02-04T01:21:35;99508.59;;;9.97;60.16
69879;BME280;57161;43.136;24.706;2024-02-04T01:24:01;99514.41;;;9.99;60.33
69879;BME280;57161;43.136;24.706;2024-02-04T01:26:26;99553.75;;;10.14;60.40
69879;BME280;57161;43.136;24.706;2024-02-04T01:28:51;99547.78;;;10.23;60.10
69879;BME280;57161;43.136;24.706;2024-02-04T01:31:17;99537.66;;;10.20;60.70
69879;BME280;57161;43.136;24.706;2024-02-04T01:33:43;99537.22;;;10.16;60.54
69879;BME280;57161;43.136;24.706;2024-02-04T01:36:09;99530.75;;;10.08;60.69
69879;BME280;57161;43.136;24.706;2024-02-04T01:38:34;99530.75;;;10.08;61.03
69879;BME280;57161;43.136;24.706;2024-02-04T01:41:00;99474.91;;;9.63;61.45
69879;BME280;57161;43.136;24.706;2024-02-04T01:43:25;99529.75;;;9.92;61.32
69879;BME280;57161;43.136;24.706;2024-02-04T01:45:51;99507.91;;;9.78;61.63
69879;BME280;57161;43.136;24.706;2024-02-04T01:48:20;99514.50;;;9.93;61.22
69879;BME280;57161;43.136;24.706;2024-02-04T01:50:48;99513.50;;;9.91;61.38
69879;BME280;57161;43.136;24.706;2024-02-04T01:53:17;99500.72;;;9.82;61.53
69879;BME280;57161;43.136;24.706;2024-02-04T01:55:44;99513.28;;;9.89;61.40
69879;BME280;57161;43.136;24.706;2024-02-04T01:58:10;99514.72;;;9.96;61.69
69879;BME280;57161;43.136;24.706;2024-02-04T02:00:36;99509.16;;;9.96;61.20
69879;BME280;57161;43.136;24.706;2024-02-04T02:03:01;99520.22;;;10.01;61.10
69879;BME280;57161;43.136;24.706;2024-02-04T02:05:31;99443.53;;;9.57;60.58
69879;BME280;57161;43.136;24.706;2024-02-04T02:07:56;99499.28;;;9.95;61.04
69879;BME280;57161;43.136;24.706;2024-02-04T02:10:22;99493.97;;;9.91;60.89
69879;BME280;57161;43.136;24.706;2024-02-04T02:13:07;99516.97;;;9.97;61.14
69879;BME280;57161;43.136;24.706;2024-02-04T02:15:40;99525.94;;;10.09;60.68
69879;BME280;57161;43.136;24.706;2024-02-04T02:18:21;99500.66;;;10.01;60.33
69879;BME280;57161;43.136;24.706;2024-02-04T02:24:03;99510.81;;;10.17;60.29
69879;BME280;57161;43.136;24.706;2024-02-04T02:26:31;99508.19;;;10.25;60.18
69879;BME280;57161;43.136;24.706;2024-02-04T02:28:57;99517.41;;;10.33;60.19
69879;BME280;57161;43.136;24.706;2024-02-04T02:31:22;99492.34;;;10.14;60.07
69879;BME280;57161;43.136;24.706;2024-02-04T02:33:48;99522.25;;;10.33;59.98
69879;BME280;57161;43.136;24.706;2024-02-04T02:36:17;99523.00;;;10.33;60.13
69879;BME280;57161;43.136;24.706;2024-02-04T02:41:18;99513.47;;;10.42;59.46
69879;BME280;57161;43.136;24.706;2024-02-04T02:43:46;99508.16;;;10.38;59.38
69879;BME280;57161;43.136;24.706;2024-02-04T02:46:13;99471.88;;;10.25;59.02
69879;BME280;57161;43.136;24.706;2024-02-04T02:48:38;99525.91;;;10.54;59.21
69879;BME280;57161;43.136;24.706;2024-02-04T02:51:05;99504.66;;;10.51;58.83
69879;BME280;57161;43.136;24.706;2024-02-04T02:53:30;99526.38;;;10.58;59.10
69879;BME280;57161;43.136;24.706;2024-02-04T02:55:56;99527.97;;;10.53;59.21
69879;BME280;57161;43.136;24.706;2024-02-04T02:58:21;99532.38;;;10.62;59.09
69879;BME280;57161;43.136;24.706;2024-02-04T03:00:47;99527.22;;;10.66;58.85
69879;BME280;57161;43.136;24.706;2024-02-04T03:03:12;99533.13;;;10.63;59.04
69879;BME280;57161;43.136;24.706;2024-02-04T03:05:38;99523.78;;;10.60;58.85
69879;BME280;57161;43.136;24.706;2024-02-04T03:08:03;99527.13;;;10.59;59.03
69879;BME280;57161;43.136;24.706;2024-02-04T03:10:29;99533.22;;;10.70;58.91
69879;BME280;57161;43.136;24.706;2024-02-04T03:12:54;99540.78;;;10.75;58.69
69879;BME280;57161;43.136;24.706;2024-02-04T03:15:20;99524.22;;;10.64;58.89
69879;BME280;57161;43.136;24.706;2024-02-04T03:17:45;99499.28;;;10.53;58.85
69879;BME280;57161;43.136;24.706;2024-02-04T03:20:11;99537.66;;;10.66;59.24
69879;BME280;57161;43.136;24.706;2024-02-04T03:22:36;99532.72;;;10.59;59.36
69879;BME280;57161;43.136;24.706;2024-02-04T03:25:02;99534.63;;;10.64;58.94
69879;BME280;57161;43.136;24.706;2024-02-04T03:27:27;99544.13;;;10.74;58.96
69879;BME280;57161;43.136;24.706;2024-02-04T03:29:53;99522.69;;;10.50;59.18
69879;BME280;57161;43.136;24.706;2024-02-04T03:32:18;99522.38;;;10.53;59.11
69879;BME280;57161;43.136;24.706;2024-02-04T03:34:44;99526.03;;;10.62;59.55
69879;BME280;57161;43.136;24.706;2024-02-04T03:37:09;99522.03;;;10.57;59.93
69879;BME280;57161;43.136;24.706;2024-02-04T03:39:35;99510.03;;;10.62;59.88
69879;BME280;57161;43.136;24.706;2024-02-04T03:42:00;99531.09;;;10.63;60.04
69879;BME280;57161;43.136;24.706;2024-02-04T03:44:26;99527.88;;;10.59;60.01
69879;BME280;57161;43.136;24.706;2024-02-04T03:46:51;99513.13;;;10.45;60.14
69879;BME280;57161;43.136;24.706;2024-02-04T03:49:17;99537.53;;;10.58;60.32
69879;BME280;57161;43.136;24.706;2024-02-04T03:51:43;99523.56;;;10.45;60.34
69879;BME280;57161;43.136;24.706;2024-02-04T03:54:08;99537.63;;;10.52;60.24
69879;BME280;57161;43.136;24.706;2024-02-04T03:56:33;99540.56;;;10.60;60.58
69879;BME280;57161;43.136;24.706;2024-02-04T03:58:59;99533.22;;;10.57;60.21
69879;BME280;57161;43.136;24.706;2024-02-04T04:01:24;99534.97;;;10.60;60.08
69879;BME280;57161;43.136;24.706;2024-02-04T04:03:50;99540.34;;;10.58;60.08
69879;BME280;57161;43.136;24.706;2024-02-04T04:06:15;99548.19;;;10.60;60.11
69879;BME280;57161;43.136;24.706;2024-02-04T04:08:41;99537.75;;;10.60;59.89
69879;BME280;57161;43.136;24.706;2024-02-04T04:11:10;99544.31;;;10.63;60.31
69879;BME280;57161;43.136;24.706;2024-02-04T04:13:37;99553.66;;;10.65;60.45
69879;BME280;57161;43.136;24.706;2024-02-04T04:16:03;99538.72;;;10.49;60.71
69879;BME280;57161;43.136;24.706;2024-02-04T04:18:29;99544.63;;;10.46;61.17
69879;BME280;57161;43.136;24.706;2024-02-04T04:20:55;99503.09;;;10.23;61.05
69879;BME280;57161;43.136;24.706;2024-02-04T04:23:20;99552.56;;;10.42;61.48
69879;BME280;57161;43.136;24.706;2024-02-04T04:25:46;99548.13;;;10.33;62.14
69879;BME280;57161;43.136;24.706;2024-02-04T04:28:11;99521.31;;;10.11;62.13
69879;BME280;57161;43.136;24.706;2024-02-04T04:30:36;99535.78;;;10.29;62.29
69879;BME280;57161;43.136;24.706;2024-02-04T04:33:02;99536.78;;;10.12;62.72
69879;BME280;57161;43.136;24.706;2024-02-04T04:35:27;99553.44;;;10.18;62.90
69879;BME280;57161;43.136;24.706;2024-02-04T04:37:53;99555.53;;;10.31;62.90
69879;BME280;57161;43.136;24.706;2024-02-04T04:40:18;99535.47;;;10.00;63.40
69879;BME280;57161;43.136;24.706;2024-02-04T04:42:44;99526.13;;;9.98;63.88
69879;BME280;57161;43.136;24.706;2024-02-04T04:45:10;99530.25;;;9.91;64.10
69879;BME280;57161;43.136;24.706;2024-02-04T04:47:36;99540.44;;;9.88;64.20
69879;BME280;57161;43.136;24.706;2024-02-04T04:50:02;99555.09;;;9.95;64.55
69879;BME280;57161;43.136;24.706;2024-02-04T04:52:31;99562.44;;;10.11;63.96
69879;BME280;57161;43.136;24.706;2024-02-04T04:54:57;99540.13;;;9.92;64.08
69879;BME280;57161;43.136;24.706;2024-02-04T04:57:22;99503.56;;;9.63;64.47
69879;BME280;57161;43.136;24.706;2024-02-04T04:59:48;99556.66;;;10.09;64.36
69879;BME280;57161;43.136;24.706;2024-02-04T05:02:13;99493.28;;;9.72;64.28
69879;BME280;57161;43.136;24.706;2024-02-04T05:04:42;99552.47;;;10.15;64.19
69879;BME280;57161;43.136;24.706;2024-02-04T05:07:08;99543.81;;;10.00;64.53
69879;BME280;57161;43.136;24.706;2024-02-04T05:09:34;99555.41;;;10.23;64.23
69879;BME280;57161;43.136;24.706;2024-02-04T05:11:59;99520.38;;;9.90;64.37
69879;BME280;57161;43.136;24.706;2024-02-04T05:14:24;99566.13;;;10.19;64.32
69879;BME280;57161;43.136;24.706;2024-02-04T05:16:52;99547.28;;;10.06;64.79
69879;BME280;57161;43.136;24.706;2024-02-04T05:19:17;99557.97;;;10.21;64.59
69879;BME280;57161;43.136;24.706;2024-02-04T05:21:43;99531.69;;;9.98;64.76
69879;BME280;57161;43.136;24.706;2024-02-04T05:24:08;99559.44;;;10.09;64.81
69879;BME280;57161;43.136;24.706;2024-02-04T05:26:34;99546.66;;;10.13;64.83
69879;BME280;57161;43.136;24.706;2024-02-04T05:28:59;99548.78;;;10.07;64.78
69879;BME280;57161;43.136;24.706;2024-02-04T05:31:25;99536.97;;;10.01;64.76
69879;BME280;57161;43.136;24.706;2024-02-04T05:33:52;99512.84;;;9.85;65.06
69879;BME280;57161;43.136;24.706;2024-02-04T05:36:17;99546.00;;;10.07;64.55
69879;BME280;57161;43.136;24.706;2024-02-04T05:38:45;99534.16;;;10.01;64.78
69879;BME280;57161;43.136;24.706;2024-02-04T05:41:11;99538.28;;;10.13;64.45
69879;BME280;57161;43.136;24.706;2024-02-04T05:43:36;99534.59;;;10.05;64.52
69879;BME280;57161;43.136;24.706;2024-02-04T05:46:02;99544.09;;;10.15;64.54
69879;BME280;57161;43.136;24.706;2024-02-04T05:48:27;99568.63;;;10.22;64.27
69879;BME280;57161;43.136;24.706;2024-02-04T05:50:53;99559.56;;;10.16;64.35
69879;BME280;57161;43.136;24.706;2024-02-04T05:53:19;99532.84;;;10.21;64.35
69879;BME280;57161;43.136;24.706;2024-02-04T05:55:44;99559.41;;;10.28;63.83
69879;BME280;57161;43.136;24.706;2024-02-04T05:58:09;99557.72;;;10.19;64.09
69879;BME280;57161;43.136;24.706;2024-02-04T06:00:35;99561.66;;;10.29;63.82
69879;BME280;57161;43.136;24.706;2024-02-04T06:03:01;99561.13;;;10.31;63.57
69879;BME280;57161;43.136;24.706;2024-02-04T06:05:27;99519.25;;;9.99;63.73
69879;BME280;57161;43.136;24.706;2024-02-04T06:07:52;99560.16;;;10.28;63.48
69879;BME280;57161;43.136;24.706;2024-02-04T06:10:17;99521.28;;;9.98;63.45
69879;BME280;57161;43.136;24.706;2024-02-04T06:12:44;99536.47;;;10.16;63.15
69879;BME280;57161;43.136;24.706;2024-02-04T06:15:14;99561.13;;;10.31;63.35
69879;BME280;57161;43.136;24.706;2024-02-04T06:17:40;99567.56;;;10.39;63.12
69879;BME280;57161;43.136;24.706;2024-02-04T06:20:05;99569.53;;;10.44;63.03
69879;BME280;57161;43.136;24.706;2024-02-04T06:22:32;99559.41;;;10.28;63.03
69879;BME280;57161;43.136;24.706;2024-02-04T06:24:57;99577.72;;;10.42;63.03
69879;BME280;57161;43.136;24.706;2024-02-04T06:27:23;99574.91;;;10.42;63.11
69879;BME280;57161;43.136;24.706;2024-02-04T06:29:48;99586.09;;;10.42;63.10
69879;BME280;57161;43.136;24.706;2024-02-04T06:32:13;99580.72;;;10.44;62.97
69879;BME280;57161;43.136;24.706;2024-02-04T06:34:39;99574.59;;;10.45;63.11
69879;BME280;57161;43.136;24.706;2024-02-04T06:37:04;99553.59;;;10.26;63.09
69879;BME280;57161;43.136;24.706;2024-02-04T06:39:30;99559.13;;;10.44;63.01
69879;BME280;57161;43.136;24.706;2024-02-04T06:41:55;99586.63;;;10.53;62.74
69879;BME280;57161;43.136;24.706;2024-02-04T06:44:21;99565.00;;;10.41;62.96
69879;BME280;57161;43.136;24.706;2024-02-04T06:46:46;99579.09;;;10.48;62.50
69879;BME280;57161;43.136;24.706;2024-02-04T06:49:13;99582.69;;;10.62;62.38
69879;BME280;57161;43.136;24.706;2024-02-04T06:51:43;99586.13;;;10.68;62.22
69879;BME280;57161;43.136;24.706;2024-02-04T06:54:09;99595.19;;;10.74;61.83
69879;BME280;57161;43.136;24.706;2024-02-04T06:56:35;99588.28;;;10.75;62.09
69879;BME280;57161;43.136;24.706;2024-02-04T06:59:02;99585.81;;;10.85;61.86
69879;BME280;57161;43.136;24.706;2024-02-04T07:01:27;99598.94;;;10.90;61.38
69879;BME280;57161;43.136;24.706;2024-02-04T07:03:53;99597.19;;;10.87;61.44
69879;BME280;57161;43.136;24.706;2024-02-04T07:06:18;99596.16;;;10.90;61.25
69879;BME280;57161;43.136;24.706;2024-02-04T07:08:44;99593.56;;;10.92;61.50
69879;BME280;57161;43.136;24.706;2024-02-04T07:11:09;99586.78;;;10.88;61.38
69879;BME280;57161;43.136;24.706;2024-02-04T07:13:35;99600.97;;;11.03;61.02
69879;BME280;57161;43.136;24.706;2024-02-04T07:16:00;99574.97;;;10.81;60.86
69879;BME280;57161;43.136;24.706;2024-02-04T07:18:26;99569.56;;;10.83;60.93
69879;BME280;57161;43.136;24.706;2024-02-04T07:20:51;99557.66;;;10.83;60.86
69879;BME280;57161;43.136;24.706;2024-02-04T07:23:18;99588.91;;;11.21;60.45
69879;BME280;57161;43.136;24.706;2024-02-04T07:25:43;99589.56;;;11.40;59.99
69879;BME280;57161;43.136;24.706;2024-02-04T07:28:09;99583.91;;;11.54;59.30
69879;BME280;57161;43.136;24.706;2024-02-04T07:30:34;99589.75;;;11.56;59.05
69879;BME280;57161;43.136;24.706;2024-02-04T07:33:00;99553.88;;;11.54;58.67
69879;BME280;57161;43.136;24.706;2024-02-04T07:35:25;99563.03;;;11.55;58.38
69879;BME280;57161;43.136;24.706;2024-02-04T07:37:51;99598.09;;;11.82;58.22
69879;BME280;57161;43.136;24.706;2024-02-04T07:40:16;99588.94;;;11.82;58.24
69879;BME280;57161;43.136;24.706;2024-02-04T07:42:41;99585.84;;;11.72;58.37
69879;BME280;57161;43.136;24.706;2024-02-04T07:45:08;99593.47;;;11.71;58.49
69879;BME280;57161;43.136;24.706;2024-02-04T07:47:35;99593.34;;;11.77;58.20
69879;BME280;57161;43.136;24.706;2024-02-04T07:50:01;99590.13;;;11.73;58.21
69879;BME280;57161;43.136;24.706;2024-02-04T07:52:26;99566.31;;;11.46;58.25
69879;BME280;57161;43.136;24.706;2024-02-04T07:54:52;99600.69;;;11.67;58.41
69879;BME280;57161;43.136;24.706;2024-02-04T07:57:17;99570.47;;;11.52;58.11
69879;BME280;57161;43.136;24.706;2024-02-04T07:59:43;99590.03;;;11.79;58.11
69879;BME280;57161;43.136;24.706;2024-02-04T08:02:08;99556.06;;;11.48;57.86
69879;BME280;57161;43.136;24.706;2024-02-04T08:04:34;99589.34;;;11.86;57.65
69879;BME280;57161;43.136;24.706;2024-02-04T08:06:59;99586.13;;;11.82;57.23
69879;BME280;57161;43.136;24.706;2024-02-04T08:09:25;99588.06;;;11.87;57.49
69879;BME280;57161;43.136;24.706;2024-02-04T08:11:51;99605.84;;;11.89;57.39
69879;BME280;57161;43.136;24.706;2024-02-04T08:14:16;99591.63;;;11.74;57.41
69879;BME280;57161;43.136;24.706;2024-02-04T08:16:43;99581.22;;;11.61;57.65
69879;BME280;57161;43.136;24.706;2024-02-04T08:19:08;99592.84;;;11.65;57.97
69879;BME280;57161;43.136;24.706;2024-02-04T08:21:34;99562.63;;;11.51;57.90
69879;BME280;57161;43.136;24.706;2024-02-04T08:23:59;99559.88;;;11.71;57.80
69879;BME280;57161;43.136;24.706;2024-02-04T08:26:25;99561.66;;;11.95;57.30
69879;BME280;57161;43.136;24.706;2024-02-04T08:28:50;99565.34;;;12.11;57.03
69879;BME280;57161;43.136;24.706;2024-02-04T08:31:16;99561.72;;;12.24;56.51
69879;BME280;57161;43.136;24.706;2024-02-04T08:33:42;99573.06;;;12.39;56.29
69879;BME280;57161;43.136;24.706;2024-02-04T08:36:07;99599.25;;;12.21;56.38
69879;BME280;57161;43.136;24.706;2024-02-04T08:38:36;99597.66;;;12.12;56.68
69879;BME280;57161;43.136;24.706;2024-02-04T08:41:02;99605.75;;;12.02;57.25
69879;BME280;57161;43.136;24.706;2024-02-04T08:43:28;99595.41;;;12.11;57.14
69879;BME280;57161;43.136;24.706;2024-02-04T08:45:54;99592.59;;;12.11;56.90
69879;BME280;57161;43.136;24.706;2024-02-04T08:48:19;99589.41;;;12.27;56.57
69879;BME280;57161;43.136;24.706;2024-02-04T08:50:45;99578.88;;;12.41;55.89
69879;BME280;57161;43.136;24.706;2024-02-04T08:53:10;99541.78;;;12.27;55.67
69879;BME280;57161;43.136;24.706;2024-02-04T08:55:35;99567.47;;;12.68;55.27
69879;BME280;57161;43.136;24.706;2024-02-04T08:58:01;99561.28;;;12.90;54.18
69879;BME280;57161;43.136;24.706;2024-02-04T09:00:26;99564.69;;;12.96;53.63
69879;BME280;57161;43.136;24.706;2024-02-04T09:02:52;99575.88;;;12.88;54.17
69879;BME280;57161;43.136;24.706;2024-02-04T09:05:17;99579.81;;;13.21;53.68
69879;BME280;57161;43.136;24.706;2024-02-04T09:07:44;99552.88;;;13.18;52.67
69879;BME280;57161;43.136;24.706;2024-02-04T09:10:09;99586.00;;;13.20;53.08
69879;BME280;57161;43.136;24.706;2024-02-04T09:12:34;99572.56;;;13.34;52.87
69879;BME280;57161;43.136;24.706;2024-02-04T09:15:00;99562.00;;;13.55;52.31
69879;BME280;57161;43.136;24.706;2024-02-04T09:17:25;99568.97;;;13.69;51.80
69879;BME280;57161;43.136;24.706;2024-02-04T09:19:51;99590.00;;;13.84;51.88
69879;BME280;57161;43.136;24.706;2024-02-04T09:22:16;99585.28;;;13.78;51.56
69879;BME280;57161;43.136;24.706;2024-02-04T09:24:42;99551.28;;;13.38;51.57
69879;BME280;57161;43.136;24.706;2024-02-04T09:27:07;99595.91;;;13.65;51.66
69879;BME280;57161;43.136;24.706;2024-02-04T09:29:33;99597.25;;;13.71;51.59
69879;BME280;57161;43.136;24.706;2024-02-04T09:31:58;99562.31;;;13.36;51.58
69879;BME280;57161;43.136;24.706;2024-02-04T09:34:24;99584.25;;;13.53;51.55
69879;BME280;57161;43.136;24.706;2024-02-04T09:36:49;99605.50;;;13.33;52.25
69879;BME280;57161;43.136;24.706;2024-02-04T09:39:15;99612.09;;;13.15;52.35
69879;BME280;57161;43.136;24.706;2024-02-04T09:41:43;99620.09;;;13.03;52.82
69879;BME280;57161;43.136;24.706;2024-02-04T09:44:09;99625.63;;;12.96;52.87
69879;BME280;57161;43.136;24.706;2024-02-04T09:46:34;99622.03;;;12.67;52.80
69879;BME280;57161;43.136;24.706;2024-02-04T09:49:00;99599.50;;;12.51;53.42
69879;BME280;57161;43.136;24.706;2024-02-04T09:51:28;99612.75;;;12.72;53.70
69879;BME280;57161;43.136;24.706;2024-02-04T09:53:56;99588.66;;;12.76;53.07
69879;BME280;57161;43.136;24.706;2024-02-04T09:56:25;99610.69;;;13.01;53.00
69879;BME280;57161;43.136;24.706;2024-02-04T09:58:50;99594.88;;;12.82;53.03
69879;BME280;57161;43.136;24.706;2024-02-04T10:01:19;99603.16;;;12.88;53.30
69879;BME280;57161;43.136;24.706;2024-02-04T10:03:44;99608.97;;;12.90;53.39
69879;BME280;57161;43.136;24.706;2024-02-04T10:06:10;99612.44;;;12.83;53.30
69879;BME280;57161;43.136;24.706;2024-02-04T10:08:36;99589.50;;;12.63;53.71
69879;BME280;57161;43.136;24.706;2024-02-04T10:11:02;99562.66;;;12.47;53.51
69879;BME280;57161;43.136;24.706;2024-02-04T10:13:27;99608.97;;;12.90;53.40
69879;BME280;57161;43.136;24.706;2024-02-04T10:15:53;99611.31;;;12.78;53.12
69879;BME280;57161;43.136;24.706;2024-02-04T10:18:18;99576.59;;;12.60;53.33
69879;BME280;57161;43.136;24.706;2024-02-04T10:20:44;99595.88;;;12.64;53.58
69879;BME280;57161;43.136;24.706;2024-02-04T10:23:09;99548.53;;;12.32;53.92
69879;BME280;57161;43.136;24.706;2024-02-04T10:25:35;99586.97;;;12.52;54.22
69879;BME280;57161;43.136;24.706;2024-02-04T10:28:01;99597.56;;;12.67;54.18
69879;BME280;57161;43.136;24.706;2024-02-04T10:30:26;99578.75;;;12.75;53.38
69879;BME280;57161;43.136;24.706;2024-02-04T10:32:52;99564.28;;;12.63;53.21
69879;BME280;57161;43.136;24.706;2024-02-04T10:35:21;99583.50;;;12.59;53.84
69879;BME280;57161;43.136;24.706;2024-02-04T10:37:49;99551.25;;;12.45;53.62
69879;BME280;57161;43.136;24.706;2024-02-04T10:40:15;99580.16;;;12.61;53.86
69879;BME280;57161;43.136;24.706;2024-02-04T10:42:42;99590.38;;;12.79;53.60
69879;BME280;57161;43.136;24.706;2024-02-04T10:45:08;99576.91;;;12.78;53.27
69879;BME280;57161;43.136;24.706;2024-02-04T10:47:38;99582.88;;;13.03;53.18
69879;BME280;57161;43.136;24.706;2024-02-04T10:50:04;99570.28;;;12.96;52.78
69879;BME280;57161;43.136;24.706;2024-02-04T10:52:38;99561.69;;;12.94;52.81
69879;BME280;57161;43.136;24.706;2024-02-04T10:55:09;99581.41;;;12.81;53.33
69879;BME280;57161;43.136;24.706;2024-02-04T10:57:36;99573.25;;;12.90;53.10
69879;BME280;57161;43.136;24.706;2024-02-04T11:00:03;99552.66;;;12.59;53.83
69879;BME280;57161;43.136;24.706;2024-02-04T11:02:38;99547.31;;;12.69;53.84
69879;BME280;57161;43.136;24.706;2024-02-04T11:05:05;99542.25;;;12.68;54.08
69879;BME280;57161;43.136;24.706;2024-02-04T11:07:34;99556.13;;;13.02;53.53
69879;BME280;57161;43.136;24.706;2024-02-04T11:10:00;99554.50;;;13.14;53.21
69879;BME280;57161;43.136;24.706;2024-02-04T11:12:27;99553.28;;;13.30;52.92
69879;BME280;57161;43.136;24.706;2024-02-04T11:14:55;99558.25;;;13.52;52.38
69879;BME280;57161;43.136;24.706;2024-02-04T11:23:39;99543.47;;;13.52;52.34
69879;BME280;57161;43.136;24.706;2024-02-04T11:26:07;99532.31;;;13.24;52.94
69879;BME280;57161;43.136;24.706;2024-02-04T11:28:34;99529.56;;;13.03;53.13
69879;BME280;57161;43.136;24.706;2024-02-04T11:30:59;99510.75;;;12.82;53.15
69879;BME280;57161;43.136;24.706;2024-02-04T11:33:27;99530.88;;;13.02;53.30
69879;BME280;57161;43.136;24.706;2024-02-04T11:36:05;99513.22;;;12.86;53.41
69879;BME280;57161;43.136;24.706;2024-02-04T11:38:36;99507.06;;;12.87;53.57
69879;BME280;57161;43.136;24.706;2024-02-04T11:41:02;99523.56;;;12.99;53.82
69879;BME280;57161;43.136;24.706;2024-02-04T11:43:28;99506.16;;;13.00;53.56
69879;BME280;57161;43.136;24.706;2024-02-04T11:45:54;99518.00;;;13.14;53.56
69879;BME280;57161;43.136;24.706;2024-02-04T11:48:19;99450.16;;;12.72;53.39
69879;BME280;57161;43.136;24.706;2024-02-04T11:50:52;99508.28;;;13.07;53.95
69879;BME280;57161;43.136;24.706;2024-02-04T11:53:18;99490.09;;;13.37;52.90
69879;BME280;57161;43.136;24.706;2024-02-04T11:55:44;99499.88;;;13.59;52.20
69879;BME280;57161;43.136;24.706;2024-02-04T11:58:11;99500.09;;;13.76;51.78
69879;BME280;57161;43.136;24.706;2024-02-04T12:00:37;99498.59;;;13.67;52.09
69879;BME280;57161;43.136;24.706;2024-02-04T12:03:03;99498.03;;;13.76;51.49
69879;BME280;57161;43.136;24.706;2024-02-04T12:05:34;99476.69;;;13.73;51.02
69879;BME280;57161;43.136;24.706;2024-02-04T12:08:02;99491.09;;;13.77;51.32
69879;BME280;57161;43.136;24.706;2024-02-04T12:10:29;99475.38;;;13.74;51.01
69879;BME280;57161;43.136;24.706;2024-02-04T12:12:55;99491.28;;;13.79;50.95
69879;BME280;57161;43.136;24.706;2024-02-04T12:15:21;99498.22;;;13.78;51.21
69879;BME280;57161;43.136;24.706;2024-02-04T12:17:47;99469.19;;;13.68;50.86
69879;BME280;57161;43.136;24.706;2024-02-04T12:20:13;99480.44;;;13.68;51.19
69879;BME280;57161;43.136;24.706;2024-02-04T12:22:38;99484.53;;;13.52;51.63
69879;BME280;57161;43.136;24.706;2024-02-04T12:25:05;99480.41;;;13.53;51.65
69879;BME280;57161;43.136;24.706;2024-02-04T12:27:30;99444.41;;;13.29;51.98
69879;BME280;57161;43.136;24.706;2024-02-04T12:29:56;99476.88;;;13.68;51.75
69879;BME280;57161;43.136;24.706;2024-02-04T12:32:22;99470.13;;;13.71;51.10
69879;BME280;57161;43.136;24.706;2024-02-04T12:34:48;99458.34;;;13.80;50.83
69879;BME280;57161;43.136;24.706;2024-02-04T12:37:14;99455.53;;;13.72;51.20
69879;BME280;57161;43.136;24.706;2024-02-04T12:39:39;99472.56;;;13.97;50.89
69879;BME280;57161;43.136;24.706;2024-02-04T12:42:05;99458.53;;;14.12;50.22
69879;BME280;57161;43.136;24.706;2024-02-04T12:44:31;99457.41;;;14.08;50.15
69879;BME280;57161;43.136;24.706;2024-02-04T12:46:57;99420.34;;;13.71;50.40
69879;BME280;57161;43.136;24.706;2024-02-04T12:49:23;99413.41;;;13.72;50.35
69879;BME280;57161;43.136;24.706;2024-02-04T12:51:48;99442.44;;;13.90;50.40
69879;BME280;57161;43.136;24.706;2024-02-04T12:54:14;99429.50;;;13.95;50.20
69879;BME280;57161;43.136;24.706;2024-02-04T12:56:49;99438.69;;;14.10;49.83